Latest Areodrome Forecast (TAF)

TAF VMMC 192300Z 2000/2106 09013KT 9000 FEW020 SCT035=

Decoded TAF in plain language
Contents of Report Code Information
Report Type TAF Aerodrome Forecasts
Location VMMC Macao, China
Issuing Time 192300Z 19/10/2018 23:00 UTC
Period of Validity of Forecast 2000/2106 Between 20th 00:00 UTC and 21st 06:00 UTC
Surface Wind Direction and Speed 09013KT mean direction 090 degrees, speed 13 knots
Visibility 9000 9 kilometres
Weather    
Cloud FEW020 SCT035 amount 1-2 oktas, base 2000 feet;
amount 3-4 oktas, base 3500 feet

OTHER INTERNATIONAL AIRPORTS:
Weather Forecast (TAF)   Weather Report (METAR)